sensor_id;sensor_type;location;lat;lon;timestamp;P1;durP1;ratioP1;P2;durP2;ratioP2
10150;SDS011;5116;52.318;4.644;2023-02-05T00:01:39;7.07;;;4.57;;
10150;SDS011;5116;52.318;4.644;2023-02-05T00:04:06;8.47;;;5.33;;
10150;SDS011;5116;52.318;4.644;2023-02-05T00:06:34;7.80;;;4.23;;
10150;SDS011;5116;52.318;4.644;2023-02-05T00:09:03;4.97;;;3.80;;
10150;SDS011;5116;52.318;4.644;2023-02-05T00:11:31;6.47;;;4.43;;
10150;SDS011;5116;52.318;4.644;2023-02-05T00:14:01;5.93;;;4.20;;
10150;SDS011;5116;52.318;4.644;2023-02-05T00:16:29;6.23;;;4.20;;
10150;SDS011;5116;52.318;4.644;2023-02-05T00:18:56;7.10;;;4.10;;
10150;SDS011;5116;52.318;4.644;2023-02-05T00:21:24;6.70;;;4.13;;
10150;SDS011;5116;52.318;4.644;2023-02-05T00:23:53;5.53;;;4.17;;
10150;SDS011;5116;52.318;4.644;2023-02-05T00:26:22;7.07;;;4.47;;
10150;SDS011;5116;52.318;4.644;2023-02-05T00:28:50;7.60;;;5.00;;
10150;SDS011;5116;52.318;4.644;2023-02-05T00:31:18;5.83;;;4.40;;
10150;SDS011;5116;52.318;4.644;2023-02-05T00:33:47;5.53;;;4.03;;
10150;SDS011;5116;52.318;4.644;2023-02-05T00:36:16;6.10;;;4.10;;
10150;SDS011;5116;52.318;4.644;2023-02-05T00:38:44;6.60;;;4.43;;
10150;SDS011;5116;52.318;4.644;2023-02-05T00:41:12;6.97;;;3.83;;
10150;SDS011;5116;52.318;4.644;2023-02-05T00:43:40;8.33;;;4.70;;
10150;SDS011;5116;52.318;4.644;2023-02-05T00:46:11;6.10;;;4.33;;
10150;SDS011;5116;52.318;4.644;2023-02-05T00:48:40;4.97;;;3.67;;
10150;SDS011;5116;52.318;4.644;2023-02-05T00:51:09;7.00;;;4.53;;
10150;SDS011;5116;52.318;4.644;2023-02-05T00:53:40;6.53;;;4.27;;
10150;SDS011;5116;52.318;4.644;2023-02-05T00:56:08;5.80;;;3.67;;
10150;SDS011;5116;52.318;4.644;2023-02-05T00:58:36;5.07;;;3.93;;
10150;SDS011;5116;52.318;4.644;2023-02-05T01:01:04;4.50;;;3.67;;
10150;SDS011;5116;52.318;4.644;2023-02-05T01:03:32;4.20;;;3.10;;
10150;SDS011;5116;52.318;4.644;2023-02-05T01:06:00;6.27;;;3.60;;
10150;SDS011;5116;52.318;4.644;2023-02-05T01:08:29;7.80;;;3.83;;
10150;SDS011;5116;52.318;4.644;2023-02-05T01:10:57;4.87;;;4.03;;
10150;SDS011;5116;52.318;4.644;2023-02-05T01:13:25;5.70;;;4.17;;
10150;SDS011;5116;52.318;4.644;2023-02-05T01:15:53;4.87;;;3.73;;
10150;SDS011;5116;52.318;4.644;2023-02-05T01:18:20;4.97;;;3.63;;
10150;SDS011;5116;52.318;4.644;2023-02-05T01:20:48;3.70;;;3.33;;
10150;SDS011;5116;52.318;4.644;2023-02-05T01:23:16;5.27;;;3.17;;
10150;SDS011;5116;52.318;4.644;2023-02-05T01:25:43;5.30;;;3.77;;
10150;SDS011;5116;52.318;4.644;2023-02-05T01:28:13;3.80;;;2.80;;
10150;SDS011;5116;52.318;4.644;2023-02-05T01:30:41;6.83;;;3.97;;
10150;SDS011;5116;52.318;4.644;2023-02-05T01:33:14;4.27;;;2.90;;
10150;SDS011;5116;52.318;4.644;2023-02-05T01:35:41;4.97;;;3.00;;
10150;SDS011;5116;52.318;4.644;2023-02-05T01:38:11;2.97;;;2.20;;
10150;SDS011;5116;52.318;4.644;2023-02-05T01:40:39;5.77;;;3.77;;
10150;SDS011;5116;52.318;4.644;2023-02-05T01:43:12;5.57;;;3.53;;
10150;SDS011;5116;52.318;4.644;2023-02-05T01:45:49;2.97;;;2.43;;
10150;SDS011;5116;52.318;4.644;2023-02-05T01:48:19;8.60;;;3.33;;
10150;SDS011;5116;52.318;4.644;2023-02-05T01:50:50;4.10;;;2.83;;
10150;SDS011;5116;52.318;4.644;2023-02-05T01:53:24;5.50;;;2.83;;
10150;SDS011;5116;52.318;4.644;2023-02-05T01:56:14;3.77;;;2.57;;
10150;SDS011;5116;52.318;4.644;2023-02-05T01:58:57;3.30;;;2.27;;
10150;SDS011;5116;52.318;4.644;2023-02-05T02:01:27;4.77;;;2.70;;
10150;SDS011;5116;52.318;4.644;2023-02-05T02:03:55;3.43;;;2.53;;
10150;SDS011;5116;52.318;4.644;2023-02-05T02:06:24;2.97;;;2.40;;
10150;SDS011;5116;52.318;4.644;2023-02-05T02:08:52;3.30;;;2.20;;
10150;SDS011;5116;52.318;4.644;2023-02-05T02:11:20;2.80;;;2.23;;
10150;SDS011;5116;52.318;4.644;2023-02-05T02:13:50;3.20;;;2.07;;
10150;SDS011;5116;52.318;4.644;2023-02-05T02:16:19;1.50;;;1.43;;
10150;SDS011;5116;52.318;4.644;2023-02-05T02:18:47;2.00;;;1.80;;
10150;SDS011;5116;52.318;4.644;2023-02-05T02:26:42;3.03;;;2.53;;
10150;SDS011;5116;52.318;4.644;2023-02-05T02:32:30;3.90;;;2.30;;
10150;SDS011;5116;52.318;4.644;2023-02-05T02:35:00;2.30;;;1.97;;
10150;SDS011;5116;52.318;4.644;2023-02-05T02:37:32;4.53;;;2.23;;
10150;SDS011;5116;52.318;4.644;2023-02-05T02:42:39;2.37;;;1.90;;
10150;SDS011;5116;52.318;4.644;2023-02-05T02:45:08;2.43;;;1.60;;
10150;SDS011;5116;52.318;4.644;2023-02-05T02:47:38;2.13;;;1.47;;
10150;SDS011;5116;52.318;4.644;2023-02-05T02:50:17;3.30;;;2.47;;
10150;SDS011;5116;52.318;4.644;2023-02-05T02:52:47;2.90;;;2.03;;
10150;SDS011;5116;52.318;4.644;2023-02-05T02:55:18;1.93;;;1.70;;
10150;SDS011;5116;52.318;4.644;2023-02-05T02:57:47;1.93;;;1.50;;
10150;SDS011;5116;52.318;4.644;2023-02-05T03:00:19;2.20;;;1.53;;
10150;SDS011;5116;52.318;4.644;2023-02-05T03:02:48;1.77;;;1.53;;
10150;SDS011;5116;52.318;4.644;2023-02-05T03:05:18;4.13;;;1.87;;
10150;SDS011;5116;52.318;4.644;2023-02-05T03:07:48;3.80;;;1.73;;
10150;SDS011;5116;52.318;4.644;2023-02-05T03:10:18;1.63;;;1.40;;
10150;SDS011;5116;52.318;4.644;2023-02-05T03:12:46;1.77;;;1.47;;
10150;SDS011;5116;52.318;4.644;2023-02-05T03:15:14;2.33;;;1.83;;
10150;SDS011;5116;52.318;4.644;2023-02-05T03:17:42;1.97;;;1.77;;
10150;SDS011;5116;52.318;4.644;2023-02-05T03:20:32;3.97;;;1.60;;
10150;SDS011;5116;52.318;4.644;2023-02-05T03:22:58;2.87;;;1.73;;
10150;SDS011;5116;52.318;4.644;2023-02-05T03:25:26;2.30;;;1.80;;
10150;SDS011;5116;52.318;4.644;2023-02-05T03:27:57;2.17;;;1.60;;
10150;SDS011;5116;52.318;4.644;2023-02-05T03:30:31;2.77;;;1.87;;
10150;SDS011;5116;52.318;4.644;2023-02-05T03:33:26;2.13;;;1.83;;
10150;SDS011;5116;52.318;4.644;2023-02-05T03:36:03;2.27;;;2.00;;
10150;SDS011;5116;52.318;4.644;2023-02-05T03:44:12;1.93;;;1.70;;
10150;SDS011;5116;52.318;4.644;2023-02-05T03:46:47;3.37;;;2.20;;
10150;SDS011;5116;52.318;4.644;2023-02-05T03:49:40;2.63;;;1.93;;
10150;SDS011;5116;52.318;4.644;2023-02-05T03:52:07;2.30;;;2.07;;
10150;SDS011;5116;52.318;4.644;2023-02-05T03:54:39;2.60;;;2.03;;
10150;SDS011;5116;52.318;4.644;2023-02-05T03:57:21;1.93;;;1.77;;
10150;SDS011;5116;52.318;4.644;2023-02-05T03:59:49;3.17;;;1.90;;
10150;SDS011;5116;52.318;4.644;2023-02-05T04:02:18;1.70;;;1.60;;
10150;SDS011;5116;52.318;4.644;2023-02-05T04:04:46;2.43;;;1.80;;
10150;SDS011;5116;52.318;4.644;2023-02-05T04:07:15;2.20;;;1.87;;
10150;SDS011;5116;52.318;4.644;2023-02-05T04:09:43;1.87;;;1.70;;
10150;SDS011;5116;52.318;4.644;2023-02-05T04:12:11;1.40;;;1.30;;
10150;SDS011;5116;52.318;4.644;2023-02-05T04:14:39;1.50;;;1.40;;
10150;SDS011;5116;52.318;4.644;2023-02-05T04:17:09;2.77;;;1.87;;
10150;SDS011;5116;52.318;4.644;2023-02-05T04:19:38;1.30;;;1.20;;
10150;SDS011;5116;52.318;4.644;2023-02-05T04:22:08;1.13;;;1.03;;
10150;SDS011;5116;52.318;4.644;2023-02-05T04:24:38;1.63;;;1.17;;
10150;SDS011;5116;52.318;4.644;2023-02-05T04:27:06;1.47;;;1.20;;
10150;SDS011;5116;52.318;4.644;2023-02-05T04:29:34;1.40;;;1.17;;
10150;SDS011;5116;52.318;4.644;2023-02-05T04:32:03;2.07;;;1.90;;
10150;SDS011;5116;52.318;4.644;2023-02-05T04:34:30;1.70;;;0.97;;
10150;SDS011;5116;52.318;4.644;2023-02-05T04:37:00;1.70;;;1.00;;
10150;SDS011;5116;52.318;4.644;2023-02-05T04:39:28;2.63;;;1.07;;
10150;SDS011;5116;52.318;4.644;2023-02-05T04:41:56;1.10;;;1.00;;
10150;SDS011;5116;52.318;4.644;2023-02-05T04:44:25;2.93;;;1.80;;
10150;SDS011;5116;52.318;4.644;2023-02-05T04:46:52;1.23;;;1.10;;
10150;SDS011;5116;52.318;4.644;2023-02-05T04:49:20;2.27;;;1.10;;
10150;SDS011;5116;52.318;4.644;2023-02-05T04:51:47;3.57;;;1.30;;
10150;SDS011;5116;52.318;4.644;2023-02-05T04:54:14;2.60;;;1.67;;
10150;SDS011;5116;52.318;4.644;2023-02-05T04:56:42;4.00;;;0.97;;
10150;SDS011;5116;52.318;4.644;2023-02-05T04:59:09;1.03;;;1.03;;
10150;SDS011;5116;52.318;4.644;2023-02-05T05:01:37;3.00;;;0.90;;
10150;SDS011;5116;52.318;4.644;2023-02-05T05:04:04;1.20;;;1.10;;
10150;SDS011;5116;52.318;4.644;2023-02-05T05:06:32;1.90;;;1.47;;
10150;SDS011;5116;52.318;4.644;2023-02-05T05:09:00;2.17;;;0.83;;
10150;SDS011;5116;52.318;4.644;2023-02-05T05:11:27;1.33;;;1.23;;
10150;SDS011;5116;52.318;4.644;2023-02-05T05:13:55;1.30;;;1.20;;
10150;SDS011;5116;52.318;4.644;2023-02-05T05:16:26;0.73;;;0.73;;
10150;SDS011;5116;52.318;4.644;2023-02-05T05:18:53;1.80;;;1.23;;
10150;SDS011;5116;52.318;4.644;2023-02-05T05:21:20;1.37;;;1.07;;
10150;SDS011;5116;52.318;4.644;2023-02-05T05:23:48;0.80;;;0.80;;
10150;SDS011;5116;52.318;4.644;2023-02-05T05:26:15;1.00;;;1.00;;
10150;SDS011;5116;52.318;4.644;2023-02-05T05:28:43;2.87;;;1.30;;
10150;SDS011;5116;52.318;4.644;2023-02-05T05:31:14;1.03;;;0.87;;
10150;SDS011;5116;52.318;4.644;2023-02-05T05:33:46;1.97;;;1.47;;
10150;SDS011;5116;52.318;4.644;2023-02-05T05:36:14;1.57;;;0.90;;
10150;SDS011;5116;52.318;4.644;2023-02-05T05:38:42;1.80;;;1.30;;
10150;SDS011;5116;52.318;4.644;2023-02-05T05:41:17;1.00;;;0.90;;
10150;SDS011;5116;52.318;4.644;2023-02-05T05:44:04;1.90;;;0.93;;
10150;SDS011;5116;52.318;4.644;2023-02-05T05:46:31;2.63;;;1.00;;
10150;SDS011;5116;52.318;4.644;2023-02-05T05:49:00;1.67;;;1.07;;
10150;SDS011;5116;52.318;4.644;2023-02-05T05:51:28;1.37;;;0.90;;
10150;SDS011;5116;52.318;4.644;2023-02-05T05:53:57;1.47;;;1.00;;
10150;SDS011;5116;52.318;4.644;2023-02-05T05:56:24;1.20;;;1.03;;
10150;SDS011;5116;52.318;4.644;2023-02-05T05:58:52;1.90;;;1.23;;
10150;SDS011;5116;52.318;4.644;2023-02-05T06:01:20;3.03;;;1.17;;
10150;SDS011;5116;52.318;4.644;2023-02-05T06:03:49;2.20;;;1.20;;
10150;SDS011;5116;52.318;4.644;2023-02-05T06:06:16;1.87;;;1.20;;
10150;SDS011;5116;52.318;4.644;2023-02-05T06:08:44;2.50;;;1.50;;
10150;SDS011;5116;52.318;4.644;2023-02-05T06:11:11;2.77;;;1.20;;
10150;SDS011;5116;52.318;4.644;2023-02-05T06:13:39;1.63;;;1.20;;
10150;SDS011;5116;52.318;4.644;2023-02-05T06:16:07;1.57;;;1.37;;
10150;SDS011;5116;52.318;4.644;2023-02-05T06:18:35;0.93;;;0.93;;
10150;SDS011;5116;52.318;4.644;2023-02-05T06:21:03;3.90;;;1.27;;
10150;SDS011;5116;52.318;4.644;2023-02-05T06:23:31;2.80;;;1.17;;
10150;SDS011;5116;52.318;4.644;2023-02-05T06:25:59;2.37;;;1.20;;
10150;SDS011;5116;52.318;4.644;2023-02-05T06:28:26;1.83;;;1.30;;
10150;SDS011;5116;52.318;4.644;2023-02-05T06:30:54;1.63;;;1.00;;
10150;SDS011;5116;52.318;4.644;2023-02-05T06:33:21;3.80;;;1.67;;
10150;SDS011;5116;52.318;4.644;2023-02-05T06:35:49;0.80;;;0.80;;
10150;SDS011;5116;52.318;4.644;2023-02-05T06:38:16;1.10;;;1.00;;
10150;SDS011;5116;52.318;4.644;2023-02-05T06:40:44;1.60;;;1.03;;
10150;SDS011;5116;52.318;4.644;2023-02-05T06:43:13;1.60;;;0.90;;
10150;SDS011;5116;52.318;4.644;2023-02-05T06:45:43;1.63;;;1.20;;
10150;SDS011;5116;52.318;4.644;2023-02-05T06:48:10;3.37;;;1.40;;
10150;SDS011;5116;52.318;4.644;2023-02-05T06:50:38;1.00;;;1.00;;
10150;SDS011;5116;52.318;4.644;2023-02-05T06:53:05;3.07;;;1.50;;
10150;SDS011;5116;52.318;4.644;2023-02-05T06:55:36;6.77;;;1.60;;
10150;SDS011;5116;52.318;4.644;2023-02-05T06:58:03;2.20;;;1.47;;
10150;SDS011;5116;52.318;4.644;2023-02-05T07:00:33;5.53;;;1.73;;
10150;SDS011;5116;52.318;4.644;2023-02-05T07:03:00;1.23;;;1.10;;
10150;SDS011;5116;52.318;4.644;2023-02-05T07:05:28;0.80;;;0.80;;
10150;SDS011;5116;52.318;4.644;2023-02-05T07:07:56;5.43;;;1.33;;
10150;SDS011;5116;52.318;4.644;2023-02-05T07:10:23;1.37;;;1.27;;
10150;SDS011;5116;52.318;4.644;2023-02-05T07:12:57;2.60;;;1.00;;
10150;SDS011;5116;52.318;4.644;2023-02-05T07:15:24;1.30;;;1.07;;
10150;SDS011;5116;52.318;4.644;2023-02-05T07:17:52;2.77;;;1.07;;
10150;SDS011;5116;52.318;4.644;2023-02-05T07:20:22;3.43;;;1.17;;
10150;SDS011;5116;52.318;4.644;2023-02-05T07:22:51;2.03;;;1.23;;
10150;SDS011;5116;52.318;4.644;2023-02-05T07:25:18;1.30;;;1.20;;
10150;SDS011;5116;52.318;4.644;2023-02-05T07:27:46;1.57;;;0.97;;
10150;SDS011;5116;52.318;4.644;2023-02-05T07:30:16;2.63;;;1.33;;
10150;SDS011;5116;52.318;4.644;2023-02-05T07:32:44;1.13;;;1.03;;
10150;SDS011;5116;52.318;4.644;2023-02-05T07:35:11;2.60;;;1.10;;
10150;SDS011;5116;52.318;4.644;2023-02-05T07:37:39;1.63;;;1.10;;
10150;SDS011;5116;52.318;4.644;2023-02-05T07:40:07;2.37;;;1.30;;
10150;SDS011;5116;52.318;4.644;2023-02-05T07:42:35;1.27;;;1.20;;
10150;SDS011;5116;52.318;4.644;2023-02-05T07:45:03;1.60;;;1.27;;
10150;SDS011;5116;52.318;4.644;2023-02-05T07:47:31;2.83;;;0.97;;
10150;SDS011;5116;52.318;4.644;2023-02-05T07:49:59;1.03;;;1.00;;
10150;SDS011;5116;52.318;4.644;2023-02-05T07:52:26;1.83;;;1.07;;
10150;SDS011;5116;52.318;4.644;2023-02-05T07:54:54;3.30;;;1.43;;
10150;SDS011;5116;52.318;4.644;2023-02-05T07:57:23;2.27;;;1.10;;
10150;SDS011;5116;52.318;4.644;2023-02-05T07:59:57;8.10;;;2.43;;
10150;SDS011;5116;52.318;4.644;2023-02-05T08:02:24;4.83;;;1.20;;
10150;SDS011;5116;52.318;4.644;2023-02-05T08:04:53;2.67;;;1.63;;
10150;SDS011;5116;52.318;4.644;2023-02-05T08:07:21;4.33;;;1.90;;
10150;SDS011;5116;52.318;4.644;2023-02-05T08:09:49;2.73;;;1.93;;
10150;SDS011;5116;52.318;4.644;2023-02-05T08:12:16;1.83;;;1.40;;
10150;SDS011;5116;52.318;4.644;2023-02-05T08:14:47;4.30;;;1.90;;
10150;SDS011;5116;52.318;4.644;2023-02-05T08:17:14;5.30;;;1.93;;
10150;SDS011;5116;52.318;4.644;2023-02-05T08:19:47;5.00;;;2.07;;
10150;SDS011;5116;52.318;4.644;2023-02-05T08:22:16;5.57;;;1.50;;
10150;SDS011;5116;52.318;4.644;2023-02-05T08:24:43;2.07;;;1.20;;
10150;SDS011;5116;52.318;4.644;2023-02-05T08:27:11;3.17;;;1.53;;
10150;SDS011;5116;52.318;4.644;2023-02-05T08:29:39;3.57;;;1.70;;
10150;SDS011;5116;52.318;4.644;2023-02-05T08:32:07;6.53;;;1.87;;
10150;SDS011;5116;52.318;4.644;2023-02-05T08:34:34;2.90;;;1.70;;
10150;SDS011;5116;52.318;4.644;2023-02-05T08:37:03;6.23;;;2.67;;
10150;SDS011;5116;52.318;4.644;2023-02-05T08:39:31;2.70;;;1.87;;
10150;SDS011;5116;52.318;4.644;2023-02-05T08:42:01;2.73;;;1.57;;
10150;SDS011;5116;52.318;4.644;2023-02-05T08:44:29;4.40;;;1.70;;
10150;SDS011;5116;52.318;4.644;2023-02-05T08:46:57;5.93;;;1.47;;
10150;SDS011;5116;52.318;4.644;2023-02-05T08:49:24;2.40;;;1.93;;
10150;SDS011;5116;52.318;4.644;2023-02-05T08:51:52;2.70;;;1.43;;
10150;SDS011;5116;52.318;4.644;2023-02-05T08:54:20;6.90;;;1.70;;
10150;SDS011;5116;52.318;4.644;2023-02-05T08:56:49;5.30;;;1.73;;
10150;SDS011;5116;52.318;4.644;2023-02-05T08:59:18;4.37;;;1.60;;
10150;SDS011;5116;52.318;4.644;2023-02-05T09:01:46;4.63;;;1.97;;
10150;SDS011;5116;52.318;4.644;2023-02-05T09:04:18;5.13;;;1.90;;
10150;SDS011;5116;52.318;4.644;2023-02-05T09:06:46;2.53;;;1.47;;
10150;SDS011;5116;52.318;4.644;2023-02-05T09:09:14;2.50;;;1.40;;
10150;SDS011;5116;52.318;4.644;2023-02-05T09:11:41;2.43;;;1.27;;
10150;SDS011;5116;52.318;4.644;2023-02-05T09:14:09;3.43;;;1.53;;
10150;SDS011;5116;52.318;4.644;2023-02-05T09:16:37;8.27;;;2.67;;
10150;SDS011;5116;52.318;4.644;2023-02-05T09:19:04;5.43;;;2.20;;
10150;SDS011;5116;52.318;4.644;2023-02-05T09:21:32;3.60;;;1.33;;
10150;SDS011;5116;52.318;4.644;2023-02-05T09:24:00;3.53;;;1.60;;
10150;SDS011;5116;52.318;4.644;2023-02-05T09:26:27;5.03;;;1.73;;
10150;SDS011;5116;52.318;4.644;2023-02-05T09:28:56;6.27;;;2.17;;
10150;SDS011;5116;52.318;4.644;2023-02-05T09:31:23;4.30;;;1.93;;
10150;SDS011;5116;52.318;4.644;2023-02-05T09:33:52;2.80;;;1.53;;
10150;SDS011;5116;52.318;4.644;2023-02-05T09:36:23;4.37;;;1.73;;
10150;SDS011;5116;52.318;4.644;2023-02-05T09:38:51;6.57;;;1.67;;
10150;SDS011;5116;52.318;4.644;2023-02-05T09:41:42;4.97;;;1.70;;
10150;SDS011;5116;52.318;4.644;2023-02-05T09:44:24;6.37;;;1.90;;
10150;SDS011;5116;52.318;4.644;2023-02-05T09:50:01;3.03;;;1.90;;
10150;SDS011;5116;52.318;4.644;2023-02-05T09:52:33;3.90;;;2.03;;
10150;SDS011;5116;52.318;4.644;2023-02-05T09:55:45;2.70;;;1.37;;
10150;SDS011;5116;52.318;4.644;2023-02-05T09:57:54;6.70;;;1.90;;
10150;SDS011;5116;52.318;4.644;2023-02-05T10:00:29;5.33;;;1.47;;
10150;SDS011;5116;52.318;4.644;2023-02-05T10:05:25;2.57;;;1.60;;
10150;SDS011;5116;52.318;4.644;2023-02-05T10:08:07;3.80;;;1.73;;
10150;SDS011;5116;52.318;4.644;2023-02-05T10:10:49;4.53;;;2.37;;
10150;SDS011;5116;52.318;4.644;2023-02-05T10:20:59;7.63;;;2.30;;
10150;SDS011;5116;52.318;4.644;2023-02-05T10:23:41;2.37;;;1.20;;
10150;SDS011;5116;52.318;4.644;2023-02-05T10:26:12;5.93;;;1.80;;
10150;SDS011;5116;52.318;4.644;2023-02-05T10:33:58;1.33;;;1.23;;
10150;SDS011;5116;52.318;4.644;2023-02-05T10:36:30;2.80;;;1.67;;
10150;SDS011;5116;52.318;4.644;2023-02-05T10:38:58;4.10;;;2.10;;
10150;SDS011;5116;52.318;4.644;2023-02-05T10:41:31;1.77;;;1.60;;
10150;SDS011;5116;52.318;4.644;2023-02-05T10:46:33;3.20;;;1.40;;
10150;SDS011;5116;52.318;4.644;2023-02-05T10:49:10;2.30;;;1.73;;
10150;SDS011;5116;52.318;4.644;2023-02-05T10:51:42;5.73;;;1.50;;
10150;SDS011;5116;52.318;4.644;2023-02-05T10:54:29;1.33;;;1.23;;
10150;SDS011;5116;52.318;4.644;2023-02-05T10:56:57;2.30;;;1.50;;
10150;SDS011;5116;52.318;4.644;2023-02-05T10:59:26;3.77;;;2.03;;
10150;SDS011;5116;52.318;4.644;2023-02-05T11:01:55;3.97;;;1.87;;
10150;SDS011;5116;52.318;4.644;2023-02-05T11:04:27;2.13;;;1.63;;
10150;SDS011;5116;52.318;4.644;2023-02-05T11:06:57;3.30;;;1.83;;
10150;SDS011;5116;52.318;4.644;2023-02-05T11:09:28;3.63;;;1.67;;
10150;SDS011;5116;52.318;4.644;2023-02-05T11:12:00;6.53;;;1.80;;
10150;SDS011;5116;52.318;4.644;2023-02-05T11:14:39;1.57;;;1.40;;
10150;SDS011;5116;52.318;4.644;2023-02-05T11:19:36;1.60;;;1.50;;
10150;SDS011;5116;52.318;4.644;2023-02-05T11:22:10;2.73;;;1.47;;
10150;SDS011;5116;52.318;4.644;2023-02-05T11:25:06;1.47;;;1.17;;
10150;SDS011;5116;52.318;4.644;2023-02-05T11:27:37;2.03;;;1.87;;
10150;SDS011;5116;52.318;4.644;2023-02-05T11:30:18;4.80;;;1.70;;
10150;SDS011;5116;52.318;4.644;2023-02-05T11:35:55;4.43;;;1.73;;
10150;SDS011;5116;52.318;4.644;2023-02-05T11:41:00;4.23;;;2.00;;
10150;SDS011;5116;52.318;4.644;2023-02-05T11:43:34;10.77;;;1.90;;
10150;SDS011;5116;52.318;4.644;2023-02-05T11:46:07;3.70;;;1.67;;
10150;SDS011;5116;52.318;4.644;2023-02-05T11:48:38;5.30;;;1.40;;
10150;SDS011;5116;52.318;4.644;2023-02-05T11:51:08;6.07;;;1.97;;
10150;SDS011;5116;52.318;4.644;2023-02-05T11:53:36;2.70;;;1.70;;
10150;SDS011;5116;52.318;4.644;2023-02-05T11:56:11;4.53;;;2.03;;
10150;SDS011;5116;52.318;4.644;2023-02-05T11:58:40;2.83;;;1.47;;
10150;SDS011;5116;52.318;4.644;2023-02-05T12:01:21;1.90;;;1.13;;
10150;SDS011;5116;52.318;4.644;2023-02-05T12:06:41;8.57;;;2.10;;
10150;SDS011;5116;52.318;4.644;2023-02-05T12:09:12;2.47;;;1.23;;
10150;SDS011;5116;52.318;4.644;2023-02-05T12:14:36;4.50;;;1.50;;
10150;SDS011;5116;52.318;4.644;2023-02-05T12:17:19;3.77;;;1.67;;
10150;SDS011;5116;52.318;4.644;2023-02-05T12:19:52;5.87;;;2.03;;
10150;SDS011;5116;52.318;4.644;2023-02-05T12:22:25;2.53;;;1.60;;
10150;SDS011;5116;52.318;4.644;2023-02-05T12:25:01;5.50;;;1.40;;
10150;SDS011;5116;52.318;4.644;2023-02-05T12:30:29;3.90;;;1.93;;
10150;SDS011;5116;52.318;4.644;2023-02-05T12:33:17;3.73;;;2.13;;
10150;SDS011;5116;52.318;4.644;2023-02-05T12:41:29;3.33;;;1.80;;
10150;SDS011;5116;52.318;4.644;2023-02-05T12:44:07;4.90;;;1.60;;
10150;SDS011;5116;52.318;4.644;2023-02-05T12:46:44;5.97;;;1.97;;
10150;SDS011;5116;52.318;4.644;2023-02-05T12:57:23;2.83;;;1.60;;
10150;SDS011;5116;52.318;4.644;2023-02-05T12:59:53;3.80;;;1.67;;
10150;SDS011;5116;52.318;4.644;2023-02-05T13:02:29;4.43;;;1.70;;
10150;SDS011;5116;52.318;4.644;2023-02-05T13:07:35;8.00;;;1.40;;
10150;SDS011;5116;52.318;4.644;2023-02-05T13:10:14;5.40;;;1.47;;
10150;SDS011;5116;52.318;4.644;2023-02-05T13:15:35;1.53;;;1.43;;
10150;SDS011;5116;52.318;4.644;2023-02-05T13:18:14;1.60;;;1.43;;
10150;SDS011;5116;52.318;4.644;2023-02-05T13:20:43;3.13;;;1.87;;
10150;SDS011;5116;52.318;4.644;2023-02-05T13:23:30;3.10;;;1.67;;
10150;SDS011;5116;52.318;4.644;2023-02-05T13:26:19;1.90;;;1.47;;
10150;SDS011;5116;52.318;4.644;2023-02-05T13:29:09;4.27;;;1.43;;
10150;SDS011;5116;52.318;4.644;2023-02-05T13:31:41;2.87;;;1.33;;
10150;SDS011;5116;52.318;4.644;2023-02-05T13:34:11;7.13;;;1.57;;
10150;SDS011;5116;52.318;4.644;2023-02-05T13:36:44;6.93;;;2.47;;
10150;SDS011;5116;52.318;4.644;2023-02-05T13:39:27;5.20;;;1.90;;
10150;SDS011;5116;52.318;4.644;2023-02-05T13:47:21;4.67;;;1.50;;
10150;SDS011;5116;52.318;4.644;2023-02-05T13:55:14;6.43;;;1.50;;
10150;SDS011;5116;52.318;4.644;2023-02-05T14:00:17;5.67;;;1.87;;
10150;SDS011;5116;52.318;4.644;2023-02-05T14:02:47;1.53;;;1.23;;
10150;SDS011;5116;52.318;4.644;2023-02-05T14:05:15;2.33;;;1.43;;
10150;SDS011;5116;52.318;4.644;2023-02-05T14:07:55;5.00;;;1.57;;
10150;SDS011;5116;52.318;4.644;2023-02-05T14:10:31;2.47;;;1.50;;
10150;SDS011;5116;52.318;4.644;2023-02-05T14:15:40;3.20;;;1.70;;
10150;SDS011;5116;52.318;4.644;2023-02-05T14:18:10;3.77;;;1.67;;
10150;SDS011;5116;52.318;4.644;2023-02-05T14:20:41;4.50;;;1.37;;
10150;SDS011;5116;52.318;4.644;2023-02-05T14:23:15;2.03;;;1.50;;
10150;SDS011;5116;52.318;4.644;2023-02-05T14:30:59;4.17;;;1.77;;
10150;SDS011;5116;52.318;4.644;2023-02-05T14:33:36;1.83;;;1.63;;
10150;SDS011;5116;52.318;4.644;2023-02-05T14:41:21;2.50;;;1.70;;
10150;SDS011;5116;52.318;4.644;2023-02-05T14:48:47;2.27;;;1.33;;
10150;SDS011;5116;52.318;4.644;2023-02-05T14:51:17;4.50;;;1.53;;
10150;SDS011;5116;52.318;4.644;2023-02-05T14:53:55;4.07;;;1.93;;
10150;SDS011;5116;52.318;4.644;2023-02-05T14:56:25;1.77;;;1.50;;
10150;SDS011;5116;52.318;4.644;2023-02-05T14:58:58;4.37;;;1.63;;
10150;SDS011;5116;52.318;4.644;2023-02-05T15:04:03;3.70;;;1.73;;
10150;SDS011;5116;52.318;4.644;2023-02-05T15:06:37;4.47;;;1.70;;
10150;SDS011;5116;52.318;4.644;2023-02-05T15:09:12;4.30;;;1.30;;
10150;SDS011;5116;52.318;4.644;2023-02-05T15:17:50;4.57;;;1.50;;
10150;SDS011;5116;52.318;4.644;2023-02-05T15:19:50;7.90;;;1.73;;
10150;SDS011;5116;52.318;4.644;2023-02-05T15:25:13;7.47;;;1.87;;
10150;SDS011;5116;52.318;4.644;2023-02-05T15:27:47;1.70;;;1.27;;
10150;SDS011;5116;52.318;4.644;2023-02-05T15:30:17;4.27;;;2.00;;
10150;SDS011;5116;52.318;4.644;2023-02-05T15:32:47;4.63;;;1.60;;
10150;SDS011;5116;52.318;4.644;2023-02-05T15:35:20;5.70;;;1.57;;
10150;SDS011;5116;52.318;4.644;2023-02-05T15:37:50;4.13;;;1.67;;
10150;SDS011;5116;52.318;4.644;2023-02-05T15:42:52;2.17;;;1.63;;
10150;SDS011;5116;52.318;4.644;2023-02-05T15:47:57;3.67;;;1.73;;
10150;SDS011;5116;52.318;4.644;2023-02-05T15:50:25;7.17;;;1.73;;
10150;SDS011;5116;52.318;4.644;2023-02-05T15:52:52;4.77;;;1.40;;
10150;SDS011;5116;52.318;4.644;2023-02-05T15:55:20;2.83;;;1.63;;
10150;SDS011;5116;52.318;4.644;2023-02-05T15:57:50;7.40;;;1.90;;
10150;SDS011;5116;52.318;4.644;2023-02-05T16:00:25;1.90;;;1.60;;
10150;SDS011;5116;52.318;4.644;2023-02-05T16:02:58;6.17;;;2.60;;
10150;SDS011;5116;52.318;4.644;2023-02-05T16:05:27;5.67;;;2.10;;
10150;SDS011;5116;52.318;4.644;2023-02-05T16:07:54;2.83;;;1.43;;
10150;SDS011;5116;52.318;4.644;2023-02-05T16:10:28;4.37;;;2.03;;
10150;SDS011;5116;52.318;4.644;2023-02-05T16:13:00;3.17;;;1.57;;
10150;SDS011;5116;52.318;4.644;2023-02-05T16:15:29;2.33;;;1.60;;
10150;SDS011;5116;52.318;4.644;2023-02-05T16:17:57;6.97;;;2.13;;
10150;SDS011;5116;52.318;4.644;2023-02-05T16:20:30;3.40;;;1.50;;
10150;SDS011;5116;52.318;4.644;2023-02-05T16:23:00;2.57;;;1.83;;
10150;SDS011;5116;52.318;4.644;2023-02-05T16:25:31;6.40;;;1.47;;
10150;SDS011;5116;52.318;4.644;2023-02-05T16:28:01;3.33;;;1.93;;
10150;SDS011;5116;52.318;4.644;2023-02-05T16:30:32;5.33;;;1.50;;
10150;SDS011;5116;52.318;4.644;2023-02-05T16:33:01;6.57;;;2.10;;
10150;SDS011;5116;52.318;4.644;2023-02-05T16:35:34;5.10;;;2.23;;
10150;SDS011;5116;52.318;4.644;2023-02-05T16:38:02;6.83;;;1.70;;
10150;SDS011;5116;52.318;4.644;2023-02-05T16:40:36;3.97;;;1.70;;
10150;SDS011;5116;52.318;4.644;2023-02-05T16:51:02;6.17;;;2.00;;
10150;SDS011;5116;52.318;4.644;2023-02-05T16:53:30;5.90;;;1.53;;
10150;SDS011;5116;52.318;4.644;2023-02-05T16:55:59;2.70;;;1.33;;
10150;SDS011;5116;52.318;4.644;2023-02-05T16:58:32;3.47;;;1.80;;
10150;SDS011;5116;52.318;4.644;2023-02-05T17:01:01;2.80;;;1.50;;
10150;SDS011;5116;52.318;4.644;2023-02-05T17:03:32;2.63;;;1.67;;
10150;SDS011;5116;52.318;4.644;2023-02-05T17:06:01;2.90;;;1.77;;
10150;SDS011;5116;52.318;4.644;2023-02-05T17:08:32;2.27;;;1.30;;
10150;SDS011;5116;52.318;4.644;2023-02-05T17:11:03;2.70;;;1.60;;
10150;SDS011;5116;52.318;4.644;2023-02-05T17:13:38;5.70;;;2.10;;
10150;SDS011;5116;52.318;4.644;2023-02-05T17:19:23;4.70;;;1.60;;
10150;SDS011;5116;52.318;4.644;2023-02-05T17:24:44;2.13;;;1.60;;
10150;SDS011;5116;52.318;4.644;2023-02-05T17:27:16;4.37;;;1.80;;
10150;SDS011;5116;52.318;4.644;2023-02-05T17:29:44;7.33;;;2.30;;
10150;SDS011;5116;52.318;4.644;2023-02-05T17:32:15;5.90;;;2.57;;
10150;SDS011;5116;52.318;4.644;2023-02-05T17:34:43;6.43;;;2.43;;
10150;SDS011;5116;52.318;4.644;2023-02-05T17:37:22;3.27;;;2.00;;